Time;durP1;ratioP1;P1;durP2;ratioP2;P2;SDS_P1;SDS_P2;PMS_P1;PMS_P2;Temp;Humidity;BMP_temperature;BMP_pressure;BME280_temperature;BME280_humidity;BME280_pressure;Samples;Min_cycle;Max_cycle;Signal;HPM_P1;HPM_P2
2021/05/10 00:00:41;;;;;;;;;;;;;;;18.26;55.93;101767.28;5056252;28;1036;-64
2021/05/10 00:03:08;;;;;;;;;;;;;;;18.21;55.84;101770.28;5056315;28;1585;-64
2021/05/10 00:05:34;;;;;;;;;;;;;;;18.28;55.63;101763.56;5056243;28;1552;-64
2021/05/10 00:08:00;;;;;;;;;;;;;;;18.28;55.35;101760.00;5056290;28;1056;-64
2021/05/10 00:10:26;;;;;;;;;;;;;;;18.25;55.45;101753.03;5055945;28;1194;-60
2021/05/10 00:12:52;;;;;;;;;;;;;;;18.29;55.49;101759.03;5056000;28;1403;-64
2021/05/10 00:15:18;;;;;;;;;;;;;;;18.25;55.82;101762.91;5055945;28;1902;-64
2021/05/10 00:17:44;;;;;;;;;;;;;;;18.23;55.13;101754.13;5056071;28;1040;-61
2021/05/10 00:20:12;;;;;;;;;;;;;;;18.23;55.54;101763.00;5055932;28;1525;-59
2021/05/10 00:22:38;;;;;;;;;;;;;;;18.24;55.43;101761.16;5055975;28;1102;-64
2021/05/10 00:25:05;;;;;;;;;;;;;;;18.18;55.30;101756.25;5055884;28;1058;-64
2021/05/10 00:27:31;;;;;;;;;;;;;;;18.15;55.45;101751.13;5056150;28;1081;-60
2021/05/10 00:29:57;;;;;;;;;;;;;;;18.24;55.72;101756.69;5055789;28;1325;-65
2021/05/10 00:32:23;;;;;;;;;;;;;;;18.26;55.05;101757.44;5055671;28;1055;-65
2021/05/10 00:34:49;;;;;;;;;;;;;;;18.27;55.58;101759.16;5055507;28;1533;-64
2021/05/10 00:37:16;;;;;;;;;;;;;;;18.27;55.46;101751.09;5055867;28;1902;-64
2021/05/10 00:39:42;;;;;;;;;;;;;;;18.27;55.14;101752.94;5055886;28;979;-65
2021/05/10 00:42:08;;;;;;;;;;;;;;;18.23;55.16;101746.94;5055528;28;1048;-65
2021/05/10 00:44:34;;;;;;;;;;;;;;;18.26;55.37;101744.06;5055746;28;1065;-60
2021/05/10 00:47:00;;;;;;;;;;;;;;;18.25;55.67;101750.34;5055487;28;1059;-61
2021/05/10 00:49:26;;;;;;;;;;;;;;;18.23;55.90;101746.94;5055200;28;1474;-64
2021/05/10 00:51:53;;;;;;;;;;;;;;;18.27;55.76;101747.59;5055715;28;1038;-60
2021/05/10 00:54:19;;;;;;;;;;;;;;;18.27;55.64;101745.75;5055660;28;1048;-64
2021/05/10 00:56:46;;;;;;;;;;;;;;;18.24;55.70;101739.75;5055517;28;1993;-60
2021/05/10 00:59:12;;;;;;;;;;;;;;;18.14;55.66;101742.22;5055592;28;978;-60
2021/05/10 01:01:38;;;;;;;;;;;;;;;18.21;55.18;101746.19;5055521;28;1474;-64
2021/05/10 01:04:04;;;;;;;;;;;;;;;18.21;54.88;101730.13;5054943;28;1524;-65
2021/05/10 01:06:30;;;;;;;;;;;;;;;18.18;55.13;101741.03;5055297;28;962;-60
2021/05/10 01:08:56;;;;;;;;;;;;;;;18.22;55.32;101744.34;5054933;28;1134;-60
2021/05/10 01:11:23;;;;;;;;;;;;;;;18.17;55.59;101742.00;5054777;28;1169;-64
2021/05/10 01:13:49;;;;;;;;;;;;;;;18.16;55.35;101736.75;5055222;28;987;-60
2021/05/10 01:16:15;;;;;;;;;;;;;;;18.19;55.66;101739.22;5055189;28;1898;-64
2021/05/10 01:18:42;;;;;;;;;;;;;;;18.20;55.33;101738.25;5054715;28;1525;-59
2021/05/10 01:21:09;;;;;;;;;;;;;;;18.18;55.67;101734.81;5054551;28;1205;-60
2021/05/10 01:23:36;;;;;;;;;;;;;;;18.14;55.71;101736.84;5054775;28;1055;-64
2021/05/10 01:26:02;;;;;;;;;;;;;;;18.17;55.35;101739.34;5054812;28;1052;-64
2021/05/10 01:28:28;;;;;;;;;;;;;;;18.16;55.33;101732.25;5054850;28;1102;-59
2021/05/10 01:30:54;;;;;;;;;;;;;;;18.16;55.13;101723.38;5054640;28;1051;-60
2021/05/10 01:33:21;;;;;;;;;;;;;;;18.13;55.07;101732.47;5054615;28;1434;-64
2021/05/10 01:35:48;;;;;;;;;;;;;;;18.15;54.79;101716.31;5054940;28;1975;-65
2021/05/10 01:38:14;;;;;;;;;;;;;;;18.05;55.01;101724.97;5054901;28;1010;-65
2021/05/10 01:40:41;;;;;;;;;;;;;;;18.08;55.76;101726.56;5054962;28;1035;-60
2021/05/10 01:43:08;;;;;;;;;;;;;;;18.14;55.40;101728.81;5054912;28;1056;-65
2021/05/10 01:45:36;;;;;;;;;;;;;;;18.15;55.35;101722.53;5054804;28;999;-59
2021/05/10 01:48:03;;;;;;;;;;;;;;;18.13;55.28;101727.13;5054304;28;1517;-65
2021/05/10 01:50:29;;;;;;;;;;;;;;;18.12;55.57;101725.41;5054865;28;964;-64
2021/05/10 01:52:55;;;;;;;;;;;;;;;18.12;55.62;101730.75;5054493;28;992;-64
2021/05/10 01:55:22;;;;;;;;;;;;;;;18.11;55.54;101723.69;5054689;28;1110;-60
2021/05/10 01:57:49;;;;;;;;;;;;;;;18.07;55.56;101733.75;5054398;28;1902;-65
2021/05/10 02:02:50;;;;;;;;;;;;;;;18.07;55.57;101716.84;4847098;26;1553;-44
2021/05/10 02:05:18;;;;;;;;;;;;;;;18.06;55.51;101725.81;5013525;28;1052;-44
2021/05/10 02:07:45;;;;;;;;;;;;;;;18.02;55.34;101735.03;5013820;28;1062;-43
2021/05/10 02:12:38;;;;;;;;;;;;;;;18.07;55.91;101731.06;5033019;28;1321;-62
2021/05/10 02:15:08;;;;;;;;;;;;;;;18.11;55.35;101728.19;5034699;28;978;-64
2021/05/10 02:17:35;;;;;;;;;;;;;;;18.16;55.20;101734.91;5034387;28;1910;-59
2021/05/10 02:20:01;;;;;;;;;;;;;;;18.13;55.23;101731.63;5032208;28;1600;-64
2021/05/10 02:22:27;;;;;;;;;;;;;;;18.13;55.24;101745.00;5034561;28;1331;-64
2021/05/10 02:24:53;;;;;;;;;;;;;;;18.04;54.66;101727.75;5034148;28;1292;-59
2021/05/10 02:27:19;;;;;;;;;;;;;;;18.04;55.36;101727.75;5034522;28;1015;-64
2021/05/10 02:29:45;;;;;;;;;;;;;;;17.97;55.85;101737.19;5053242;28;1290;-64
2021/05/10 02:32:12;;;;;;;;;;;;;;;17.92;54.91;101734.78;5056100;28;1232;-64
2021/05/10 02:34:38;;;;;;;;;;;;;;;17.94;55.69;101737.38;5057755;28;1473;-64
2021/05/10 02:37:04;;;;;;;;;;;;;;;17.98;54.76;101746.91;5037822;28;1973;-64
2021/05/10 02:39:31;;;;;;;;;;;;;;;17.99;55.72;101735.25;5038176;28;1017;-59
2021/05/10 02:41:57;;;;;;;;;;;;;;;17.94;55.45;101748.94;5038182;28;1076;-64
2021/05/10 02:44:23;;;;;;;;;;;;;;;17.96;55.72;101727.41;5037857;28;1482;-59
2021/05/10 02:46:49;;;;;;;;;;;;;;;17.95;54.82;101733.75;5037839;28;1118;-64
2021/05/10 02:49:16;;;;;;;;;;;;;;;18.00;54.76;101736.94;5038093;28;932;-64
2021/05/10 02:51:42;;;;;;;;;;;;;;;17.99;55.10;101737.94;5037535;28;1525;-59
2021/05/10 02:54:08;;;;;;;;;;;;;;;17.99;55.39;101735.25;5037666;28;1083;-59
2021/05/10 02:56:34;;;;;;;;;;;;;;;18.01;54.47;101738.69;5037819;28;2046;-59
2021/05/10 02:59:00;;;;;;;;;;;;;;;18.06;55.10;101739.19;5037897;28;1134;-59
2021/05/10 03:01:26;;;;;;;;;;;;;;;18.01;55.41;101741.34;5037516;28;1423;-59
2021/05/10 03:03:52;;;;;;;;;;;;;;;18.04;54.71;101736.63;5037520;28;1063;-59
2021/05/10 03:06:19;;;;;;;;;;;;;;;18.02;55.10;101740.38;5036693;28;1368;-59
2021/05/10 03:08:45;;;;;;;;;;;;;;;18.05;55.32;101750.88;5037763;28;1011;-64
2021/05/10 03:11:11;;;;;;;;;;;;;;;18.01;55.34;101749.38;5037205;28;1247;-64
2021/05/10 03:13:37;;;;;;;;;;;;;;;17.99;55.73;101757.50;5037276;28;1610;-64
2021/05/10 03:16:03;;;;;;;;;;;;;;;18.00;55.12;101761.03;5037234;28;1909;-64
2021/05/10 03:18:30;;;;;;;;;;;;;;;18.01;55.38;101765.44;5037081;28;1087;-64
2021/05/10 03:20:56;;;;;;;;;;;;;;;18.06;54.84;101742.75;5021169;28;1550;-59
2021/05/10 03:23:23;;;;;;;;;;;;;;;18.07;55.40;101755.16;5017307;28;1537;-63
2021/05/10 03:25:49;;;;;;;;;;;;;;;18.05;55.29;101761.59;5017336;28;1028;-64
2021/05/10 03:28:15;;;;;;;;;;;;;;;18.05;55.16;101753.56;5017194;28;1048;-63
2021/05/10 03:30:41;;;;;;;;;;;;;;;18.06;55.09;101752.59;5017547;28;978;-59
2021/05/10 03:33:08;;;;;;;;;;;;;;;18.04;54.52;101757.19;5017154;28;1067;-64
2021/05/10 03:35:34;;;;;;;;;;;;;;;18.07;54.71;101759.66;5032285;28;1590;-64
2021/05/10 03:38:00;;;;;;;;;;;;;;;18.06;54.62;101750.78;5036703;28;1967;-59
2021/05/10 03:40:27;;;;;;;;;;;;;;;18.07;54.30;101765.03;5037059;28;891;-64
2021/05/10 03:42:54;;;;;;;;;;;;;;;18.13;54.59;101764.59;5036613;28;1007;-64
2021/05/10 03:45:20;;;;;;;;;;;;;;;18.16;54.22;101751.00;5036805;28;1245;-59
2021/05/10 03:47:46;;;;;;;;;;;;;;;18.15;54.59;101749.28;5036722;28;1039;-59
2021/05/10 03:50:13;;;;;;;;;;;;;;;18.20;54.79;101755.16;5022765;28;1593;-63
2021/05/10 03:52:39;;;;;;;;;;;;;;;18.21;54.68;101756.03;5017572;28;1879;-64
2021/05/10 03:55:06;;;;;;;;;;;;;;;18.24;53.64;101750.47;5017116;28;923;-59
2021/05/10 03:57:33;;;;;;;;;;;;;;;18.35;53.88;101752.41;5016882;28;1980;-64
2021/05/10 03:59:59;;;;;;;;;;;;;;;18.46;53.58;101763.19;5016886;28;971;-59
2021/05/10 04:02:27;;;;;;;;;;;;;;;18.47;53.26;101755.06;5016868;28;1483;-59
2021/05/10 04:04:57;;;;;;;;;;;;;;;18.59;52.84;101756.03;5029527;28;1463;-59
2021/05/10 04:07:38;;;;;;;;;;;;;;;18.63;52.64;101757.53;5036358;28;1020;-59
2021/05/10 04:15:32;;;;;;;;;;;;;;;19.01;52.14;101767.34;5036573;28;686;-59
2021/05/10 04:17:58;;;;;;;;;;;;;;;19.17;52.02;101766.22;5036287;28;1903;-64
2021/05/10 04:20:24;;;;;;;;;;;;;;;19.39;51.48;101765.50;5036137;28;1578;-59
2021/05/10 04:22:50;;;;;;;;;;;;;;;19.67;51.06;101785.75;5036326;28;966;-63
2021/05/10 04:25:17;;;;;;;;;;;;;;;19.88;49.95;101758.31;5035953;28;1130;-64
2021/05/10 04:27:43;;;;;;;;;;;;;;;20.02;49.14;101763.47;5035871;28;1201;-59
2021/05/10 04:30:11;;;;;;;;;;;;;;;20.22;50.04;101757.41;5035873;28;1118;-60
2021/05/10 04:32:37;;;;;;;;;;;;;;;20.37;49.02;101763.44;5036123;28;1065;-59
2021/05/10 04:35:03;;;;;;;;;;;;;;;20.37;48.17;101763.44;5034117;28;1438;-59
2021/05/10 04:37:29;;;;;;;;;;;;;;;20.21;49.07;101777.22;5021524;28;1906;-64
2021/05/10 04:39:55;;;;;;;;;;;;;;;20.11;49.60;101768.13;5016231;28;1099;-59
2021/05/10 04:42:21;;;;;;;;;;;;;;;20.00;49.72;101773.50;5015818;28;1059;-60
2021/05/10 04:44:47;;;;;;;;;;;;;;;19.94;50.33;101776.66;5015898;28;1059;-64
2021/05/10 04:47:14;;;;;;;;;;;;;;;19.93;50.20;101782.97;5016132;28;1071;-64
2021/05/10 04:49:40;;;;;;;;;;;;;;;19.88;50.04;101791.38;5033054;28;1526;-64
2021/05/10 04:52:06;;;;;;;;;;;;;;;19.84;50.40;101761.22;5035468;28;1105;-64
2021/05/10 04:54:32;;;;;;;;;;;;;;;19.71;50.50;101771.16;5034687;28;1087;-64
2021/05/10 04:56:58;;;;;;;;;;;;;;;19.64;51.41;101761.84;5035427;28;1981;-64
2021/05/10 04:59:24;;;;;;;;;;;;;;;19.58;51.61;101773.06;5035638;28;979;-64
2021/05/10 05:01:50;;;;;;;;;;;;;;;19.49;52.17;101777.25;5035141;28;1510;-64
2021/05/10 05:04:17;;;;;;;;;;;;;;;19.44;51.99;101779.44;5019006;28;1577;-64
2021/05/10 05:06:44;;;;;;;;;;;;;;;19.44;51.93;101776.75;5020290;28;1459;-65
2021/05/10 05:09:10;;;;;;;;;;;;;;;19.45;51.73;101770.41;5018214;28;1534;-58
2021/05/10 05:11:36;;;;;;;;;;;;;;;19.44;51.67;101791.03;5004113;28;1075;-61
2021/05/10 05:14:02;;;;;;;;;;;;;;;19.44;52.84;101782.13;4996059;28;1032;-60
2021/05/10 05:16:30;;;;;;;;;;;;;;;19.45;51.86;101776.63;4995620;28;1981;-60
2021/05/10 05:18:56;;;;;;;;;;;;;;;19.51;52.36;101774.47;5009766;28;1626;-63
2021/05/10 05:21:23;;;;;;;;;;;;;;;19.50;52.05;101776.31;5015336;28;1476;-59
2021/05/10 05:23:49;;;;;;;;;;;;;;;19.57;52.03;101774.00;5015435;28;996;-67
2021/05/10 05:26:16;;;;;;;;;;;;;;;19.51;52.46;101779.84;5014747;28;1309;-59
2021/05/10 05:28:42;;;;;;;;;;;;;;;19.49;52.68;101777.25;5015118;28;975;-60
2021/05/10 05:31:08;;;;;;;;;;;;;;;19.45;51.72;101771.25;5015106;28;1044;-60
2021/05/10 05:33:34;;;;;;;;;;;;;;;19.45;52.62;101775.78;5014764;28;1704;-62
2021/05/10 05:36:00;;;;;;;;;;;;;;;19.46;52.39;101767.63;5012278;28;1906;-63
2021/05/10 05:38:30;;;;;;;;;;;;;;;19.45;53.17;101773.94;5005104;28;1451;-59
2021/05/10 05:40:56;;;;;;;;;;;;;;;19.45;51.94;101776.63;5006140;28;1503;-56
2021/05/10 05:43:22;;;;;;;;;;;;;;;19.47;52.31;101782.72;5014070;28;1381;-57
2021/05/10 05:45:48;;;;;;;;;;;;;;;19.43;52.40;101781.25;5014555;28;1232;-64
2021/05/10 05:48:14;;;;;;;;;;;;;;;19.58;52.50;101786.47;5002438;28;1546;-60
2021/05/10 05:50:41;;;;;;;;;;;;;;;19.57;51.81;101787.44;4997100;28;1655;-58
2021/05/10 05:53:07;;;;;;;;;;;;;;;19.62;52.29;101777.22;5013147;28;1547;-62
2021/05/10 05:55:34;;;;;;;;;;;;;;;19.67;53.46;101775.03;5015148;28;1097;-58
2021/05/10 05:58:00;;;;;;;;;;;;;;;19.61;52.70;101770.13;5013038;28;1975;-60
2021/05/10 06:00:27;;;;;;;;;;;;;;;19.67;52.47;101786.59;5010652;28;1499;-60
2021/05/10 06:02:53;;;;;;;;;;;;;;;19.67;52.80;101781.25;4996518;28;1582;-64
2021/05/10 06:05:19;;;;;;;;;;;;;;;19.76;50.53;101781.59;4995877;28;967;-59
2021/05/10 06:07:46;;;;;;;;;;;;;;;19.63;51.70;101777.06;5003547;28;1210;-60
2021/05/10 06:10:13;;;;;;;;;;;;;;;19.59;52.19;101786.34;5017967;28;1769;-59
2021/05/10 06:12:41;;;;;;;;;;;;;;;19.59;51.67;101788.16;5018912;28;1022;-60
2021/05/10 06:15:08;;;;;;;;;;;;;;;19.58;52.03;101786.47;5017732;28;1308;-58
2021/05/10 06:17:35;;;;;;;;;;;;;;;19.54;51.90;101798.41;5016661;28;1971;-59
2021/05/10 06:20:03;;;;;;;;;;;;;;;19.48;52.50;101787.13;5016318;28;1538;-61
2021/05/10 06:22:30;;;;;;;;;;;;;;;19.51;51.05;101779.84;5016924;28;1495;-60
2021/05/10 06:24:56;;;;;;;;;;;;;;;19.60;52.24;101788.06;5018839;28;999;-60
2021/05/10 06:27:22;;;;;;;;;;;;;;;19.53;51.74;101777.91;5018402;28;1119;-61
2021/05/10 06:29:49;;;;;;;;;;;;;;;19.54;51.80;101774.25;5016794;28;1539;-60
2021/05/10 06:32:15;;;;;;;;;;;;;;;19.53;51.64;101761.78;5017311;28;1566;-58
2021/05/10 06:34:41;;;;;;;;;;;;;;;19.53;51.70;101769.84;5011176;28;1538;-61
2021/05/10 06:37:07;;;;;;;;;;;;;;;19.54;51.92;101763.53;4998598;28;1906;-66
2021/05/10 06:39:34;;;;;;;;;;;;;;;19.58;52.22;101771.22;5014655;28;1514;-59
2021/05/10 06:42:00;;;;;;;;;;;;;;;19.59;51.77;101772.06;5008766;28;1479;-61
2021/05/10 06:44:26;;;;;;;;;;;;;;;19.60;51.20;101768.44;4998697;28;1555;-61
2021/05/10 06:46:53;;;;;;;;;;;;;;;19.62;50.67;101771.84;5016745;28;1598;-59
2021/05/10 06:49:19;;;;;;;;;;;;;;;19.57;49.64;101763.28;5018317;28;1043;-61
2021/05/10 06:51:45;;;;;;;;;;;;;;;19.60;50.64;101774.66;5015663;28;1292;-59
2021/05/10 06:54:11;;;;;;;;;;;;;;;19.59;50.80;101774.75;5013796;28;1439;-59
2021/05/10 06:56:37;;;;;;;;;;;;;;;19.54;50.59;101779.63;5004090;28;1979;-59
2021/05/10 06:59:03;;;;;;;;;;;;;;;19.55;50.27;101765.22;4999730;28;1472;-59
2021/05/10 07:01:29;;;;;;;;;;;;;;;19.56;50.49;101769.63;5009231;28;1548;-59
2021/05/10 07:03:56;;;;;;;;;;;;;;;19.57;50.85;101763.28;4998423;28;2032;-61
2021/05/10 07:06:22;;;;;;;;;;;;;;;19.55;50.29;101759.84;5012905;28;1340;-61
2021/05/10 07:08:48;;;;;;;;;;;;;;;19.55;50.30;101771.44;5020600;28;1440;-61
2021/05/10 07:11:14;;;;;;;;;;;;;;;19.56;49.87;101777.69;5038153;28;1330;-59
2021/05/10 07:13:40;;;;;;;;;;;;;;;19.59;50.00;101788.16;5036039;28;1557;-59
2021/05/10 07:16:07;;;;;;;;;;;;;;;19.57;49.95;101774.84;5018204;28;1910;-59
2021/05/10 07:18:33;;;;;;;;;;;;;;;19.55;50.15;101781.31;5017473;28;1541;-59
2021/05/10 07:21:00;;;;;;;;;;;;;;;19.58;49.11;101781.09;5024081;28;1498;-61
2021/05/10 07:23:26;;;;;;;;;;;;;;;19.57;49.62;101779.38;5034794;28;1565;-59
2021/05/10 07:25:53;;;;;;;;;;;;;;;19.54;49.64;101772.41;5021385;28;1537;-59
2021/05/10 07:28:19;;;;;;;;;;;;;;;19.54;49.62;101768.88;5037107;28;1071;-60
2021/05/10 07:30:46;;;;;;;;;;;;;;;19.56;49.54;101772.31;5035213;28;1467;-62
2021/05/10 07:33:12;;;;;;;;;;;;;;;19.56;49.31;101762.44;5032771;28;1462;-59
2021/05/10 07:35:38;;;;;;;;;;;;;;;19.57;49.26;101761.44;5025758;28;1550;-61
2021/05/10 07:38:05;;;;;;;;;;;;;;;19.58;49.65;101775.75;5029380;28;1910;-61
2021/05/10 07:40:32;;;;;;;;;;;;;;;19.63;49.33;101773.53;5028405;28;1521;-59
2021/05/10 07:42:58;;;;;;;;;;;;;;;19.62;49.02;101779.91;5036085;28;1429;-59
2021/05/10 07:45:24;;;;;;;;;;;;;;;19.63;49.40;101760.97;5037068;28;1390;-61
2021/05/10 07:47:53;;;;;;;;;;;;;;;19.64;49.08;101780.66;5036377;28;1480;-58
2021/05/10 07:50:19;;;;;;;;;;;;;;;19.64;50.17;101776.13;5047646;28;1246;-62
2021/05/10 07:52:45;;;;;;;;;;;;;;;19.65;49.08;101776.97;5047684;28;1241;-58
2021/05/10 07:55:12;;;;;;;;;;;;;;;19.67;49.66;101773.19;5032299;28;1545;-58
2021/05/10 07:57:38;;;;;;;;;;;;;;;19.67;50.11;101766.97;5019706;28;1906;-58
2021/05/10 08:00:07;;;;;;;;;;;;;;;19.74;50.04;101776.31;5017150;28;1419;-59
2021/05/10 08:02:35;;;;;;;;;;;;;;;19.74;49.90;101778.16;5021295;28;1645;-62
2021/05/10 08:05:02;;;;;;;;;;;;;;;19.69;49.39;101762.34;5018661;28;1561;-62
2021/05/10 08:07:28;;;;;;;;;;;;;;;19.66;50.31;101782.22;5017776;28;1478;-60
2021/05/10 08:09:54;;;;;;;;;;;;;;;19.64;50.51;101786.84;5016752;28;1529;-61
2021/05/10 08:12:21;;;;;;;;;;;;;;;19.60;51.22;101766.59;5017383;28;1466;-60
2021/05/10 08:14:47;;;;;;;;;;;;;;;19.59;49.86;101778.28;5025149;28;1490;-62
2021/05/10 08:17:13;;;;;;;;;;;;;;;19.64;50.54;101769.91;5032738;28;1910;-62
2021/05/10 08:19:39;;;;;;;;;;;;;;;19.61;50.24;101764.75;5036113;28;1059;-56
2021/05/10 08:22:05;;;;;;;;;;;;;;;19.69;50.12;101773.09;5027721;28;1577;-55
2021/05/10 08:24:32;;;;;;;;;;;;;;;19.67;50.81;101788.44;5029979;28;1258;-64
2021/05/10 08:26:58;;;;;;;;;;;;;;;19.63;51.00;101774.41;5023941;28;1459;-55
2021/05/10 08:29:25;;;;;;;;;;;;;;;19.60;51.13;101768.44;5015824;28;1282;-55
2021/05/10 08:31:52;;;;;;;;;;;;;;;19.55;50.40;101754.50;5024948;28;1376;-57
2021/05/10 08:34:18;;;;;;;;;;;;;;;19.60;51.42;101768.44;5030522;28;1336;-64
2021/05/10 08:36:44;;;;;;;;;;;;;;;19.59;50.78;101761.34;5031191;28;1914;-59
2021/05/10 08:39:11;;;;;;;;;;;;;;;19.54;50.73;101763.53;5019653;28;1211;-56
2021/05/10 08:41:38;;;;;;;;;;;;;;;19.54;51.24;101758.16;5021760;28;1364;-55
2021/05/10 08:44:04;;;;;;;;;;;;;;;19.57;51.35;101757.91;5027104;28;1274;-59
2021/05/10 08:46:31;;;;;;;;;;;;;;;19.59;51.19;101764.00;5015349;28;1294;-55
2021/05/10 08:48:57;;;;;;;;;;;;;;;19.61;50.70;101760.25;5036951;28;1301;-58
2021/05/10 08:51:24;;;;;;;;;;;;;;;19.56;50.81;101757.06;5020129;28;1230;-57
2021/05/10 08:53:50;;;;;;;;;;;;;;;19.54;50.85;101753.63;5016089;28;1243;-56
2021/05/10 08:56:17;;;;;;;;;;;;;;;19.54;51.09;101750.97;5039762;28;1971;-55
2021/05/10 08:58:43;;;;;;;;;;;;;;;19.55;51.14;101754.50;5035339;28;1487;-55
2021/05/10 09:01:10;;;;;;;;;;;;;;;19.50;51.32;101744.13;5035268;28;1495;-55
2021/05/10 09:03:41;;;;;;;;;;;;;;;19.52;51.22;101743.97;5033333;28;2007;-58
2021/05/10 09:06:11;;;;;;;;;;;;;;;19.52;50.62;101743.97;5038007;28;1400;-57
2021/05/10 09:08:40;;;;;;;;;;;;;;;19.50;51.02;101740.56;5041265;28;1352;-58
2021/05/10 09:11:06;;;;;;;;;;;;;;;19.48;50.89;101730.81;5036388;28;1338;-58
2021/05/10 09:13:33;;;;;;;;;;;;;;;19.48;51.12;101738.00;5022367;28;1612;-54
2021/05/10 09:16:00;;;;;;;;;;;;;;;19.47;50.62;101731.75;5025313;28;1642;-57
2021/05/10 09:18:26;;;;;;;;;;;;;;;19.45;50.81;101722.97;5033614;28;1923;-59
2021/05/10 09:20:54;;;;;;;;;;;;;;;19.48;50.97;101722.75;5027319;28;1593;-55
2021/05/10 09:23:20;;;;;;;;;;;;;;;19.43;50.61;101729.44;5034957;28;1090;-55
2021/05/10 09:25:47;;;;;;;;;;;;;;;19.46;50.79;101726.53;5033291;28;1542;-58
2021/05/10 09:28:14;;;;;;;;;;;;;;;19.51;51.31;101720.81;5029918;28;1569;-55
2021/05/10 09:30:41;;;;;;;;;;;;;;;19.53;50.84;101719.72;5026520;28;1486;-58
2021/05/10 09:33:14;;;;;;;;;;;;;;;19.55;51.16;101728.50;5031225;28;1804;-55
2021/05/10 09:35:40;;;;;;;;;;;;;;;19.64;50.89;101737.72;5025491;28;1557;-61
2021/05/10 09:38:08;;;;;;;;;;;;;;;19.66;50.96;101722.34;5014794;28;1973;-56
2021/05/10 09:40:42;;;;;;;;;;;;;;;19.65;51.14;101700.00;5025122;28;1741;-54
2021/05/10 09:43:08;;;;;;;;;;;;;;;19.64;50.68;101689.41;5017473;28;1216;-55
2021/05/10 09:45:36;;;;;;;;;;;;;;;19.60;50.62;101698.66;5024071;28;1282;-55
2021/05/10 09:48:10;;;;;;;;;;;;;;;19.54;50.83;101693.78;5023666;28;1393;-55
2021/05/10 09:50:36;;;;;;;;;;;;;;;19.60;50.84;101690.63;5014604;28;1321;-56
2021/05/10 09:53:03;;;;;;;;;;;;;;;19.62;50.42;101692.19;5014388;28;1231;-56
2021/05/10 09:55:42;;;;;;;;;;;;;;;19.63;50.87;101693.06;5021302;28;1534;-56
2021/05/10 09:58:08;;;;;;;;;;;;;;;19.64;49.50;101684.03;5014032;28;1977;-55
2021/05/10 10:00:34;;;;;;;;;;;;;;;19.65;49.54;101696.47;5028516;28;1262;-59
2021/05/10 10:03:01;;;;;;;;;;;;;;;19.58;49.16;101688.03;5032638;28;1653;-58
2021/05/10 10:05:28;;;;;;;;;;;;;;;19.59;48.74;101683.53;5032695;28;1277;-58
2021/05/10 10:07:54;;;;;;;;;;;;;;;19.55;47.09;101685.59;5028010;28;1292;-55
2021/05/10 10:10:20;;;;;;;;;;;;;;;19.59;47.83;101683.53;5032290;28;1219;-55
2021/05/10 10:12:47;;;;;;;;;;;;;;;19.57;48.27;101666.69;5029133;28;1879;-58
2021/05/10 10:15:13;;;;;;;;;;;;;;;19.52;48.81;101664.38;5032846;28;1290;-58
2021/05/10 10:17:39;;;;;;;;;;;;;;;19.54;46.77;101661.56;5035037;28;1914;-56
2021/05/10 10:20:08;;;;;;;;;;;;;;;19.52;47.46;101663.50;5029947;28;1411;-58
2021/05/10 10:22:34;;;;;;;;;;;;;;;19.50;47.11;101668.13;5028439;28;1693;-58
2021/05/10 10:25:02;;;;;;;;;;;;;;;19.45;47.09;101653.22;5025129;28;1879;-56
2021/05/10 10:27:29;;;;;;;;;;;;;;;19.46;46.99;101649.59;5032004;28;2084;-55
2021/05/10 10:29:56;;;;;;;;;;;;;;;19.51;47.11;101651.91;5022296;28;1478;-58
2021/05/10 10:32:23;;;;;;;;;;;;;;;19.50;47.77;101654.72;5019937;28;1576;-59
2021/05/10 10:34:50;;;;;;;;;;;;;;;19.48;44.94;101647.66;5021722;28;1247;-58
2021/05/10 10:37:17;;;;;;;;;;;;;;;19.59;45.80;101644.13;5030714;28;1971;-58
2021/05/10 10:39:49;;;;;;;;;;;;;;;19.62;46.66;101649.28;5039743;28;1281;-55
2021/05/10 10:42:22;;;;;;;;;;;;;;;19.59;47.23;101645.97;5041895;28;1517;-55
2021/05/10 10:44:53;;;;;;;;;;;;;;;19.59;47.13;101637.91;5022657;28;1232;-55
2021/05/10 10:47:36;;;;;;;;;;;;;;;19.59;47.23;101622.66;5028795;28;1490;-56
2021/05/10 10:50:04;;;;;;;;;;;;;;;19.61;47.67;101625.25;5037620;28;1962;-60
2021/05/10 10:52:30;;;;;;;;;;;;;;;19.63;47.63;101617.91;5044593;28;1152;-60
2021/05/10 10:55:12;;;;;;;;;;;;;;;19.58;48.29;101614.75;5030075;28;1157;-60
2021/05/10 10:57:38;;;;;;;;;;;;;;;19.60;47.76;101604.75;5040180;28;1973;-62
2021/05/10 11:00:06;;;;;;;;;;;;;;;19.59;47.90;101603.03;5038392;28;1552;-62
2021/05/10 11:02:37;;;;;;;;;;;;;;;19.63;48.03;101599.97;5038735;28;1794;-57
2021/05/10 11:05:14;;;;;;;;;;;;;;;19.63;47.58;101607.19;5020223;28;1397;-55
2021/05/10 11:08:02;;;;;;;;;;;;;;;19.59;48.06;101595.00;5034806;28;1520;-54
2021/05/10 11:10:48;;;;;;;;;;;;;;;19.60;47.14;101586.81;5033187;28;2173;-54
2021/05/10 11:13:32;;;;;;;;;;;;;;;19.61;46.77;101582.31;5031504;28;1243;-55
2021/05/10 11:15:59;;;;;;;;;;;;;;;19.61;45.52;101593.03;5025214;28;1233;-56
2021/05/10 11:18:47;;;;;;;;;;;;;;;19.63;46.96;101580.34;5052962;28;1965;-58
2021/05/10 11:21:37;;;;;;;;;;;;;;;19.61;47.29;101587.66;5035340;28;1216;-60
2021/05/10 11:24:05;;;;;;;;;;;;;;;19.57;47.10;101584.38;5011094;28;1834;-56
2021/05/10 11:26:38;;;;;;;;;;;;;;;19.57;46.87;101570.09;5045722;28;1314;-60
2021/05/10 11:29:05;;;;;;;;;;;;;;;19.55;46.95;101562.16;5043557;28;1204;-60
2021/05/10 11:31:33;;;;;;;;;;;;;;;19.54;46.41;101562.31;5034467;28;1597;-60
2021/05/10 11:34:12;;;;;;;;;;;;;;;19.58;45.95;101561.94;5028686;28;1525;-56
2021/05/10 11:36:51;;;;;;;;;;;;;;;19.54;46.98;101563.16;5037444;28;1985;-56
2021/05/10 11:39:25;;;;;;;;;;;;;;;19.53;46.93;101547.19;5036431;28;1724;-58
2021/05/10 11:41:56;;;;;;;;;;;;;;;19.50;46.22;101547.41;5048368;28;1533;-59
2021/05/10 11:44:22;;;;;;;;;;;;;;;19.48;46.44;101544.88;5036590;28;1252;-58
2021/05/10 11:46:50;;;;;;;;;;;;;;;19.47;46.44;101543.97;5040364;28;1263;-58
2021/05/10 11:49:31;;;;;;;;;;;;;;;19.51;45.46;101528.50;5045166;28;1240;-58
2021/05/10 11:51:59;;;;;;;;;;;;;;;19.55;46.34;101534.50;5033893;28;1263;-58
2021/05/10 11:54:26;;;;;;;;;;;;;;;19.48;46.37;101526.94;5032068;28;1598;-59
2021/05/10 11:56:54;;;;;;;;;;;;;;;19.53;46.67;101525.72;5016916;28;1918;-56
2021/05/10 12:02:03;;;;;;;;;;;;;;;19.55;46.21;101518.41;5022615;28;1756;-59
2021/05/10 12:04:29;;;;;;;;;;;;;;;19.58;46.02;101519.03;5035753;28;1494;-56
2021/05/10 12:06:56;;;;;;;;;;;;;;;19.55;45.60;101508.50;5034405;28;1487;-56
2021/05/10 12:09:49;;;;;;;;;;;;;;;19.56;44.68;101493.28;5036483;28;1188;-63
2021/05/10 12:12:30;;;;;;;;;;;;;;;19.60;46.63;101500.97;5022565;28;1754;-58
2021/05/10 12:14:58;;;;;;;;;;;;;;;19.61;45.65;101507.19;5041751;28;1538;-57
2021/05/10 12:17:24;;;;;;;;;;;;;;;19.61;46.44;101499.13;5043910;28;1906;-67
2021/05/10 12:19:52;;;;;;;;;;;;;;;19.64;46.50;101498.91;5047290;28;1266;-56
2021/05/10 12:22:19;;;;;;;;;;;;;;;19.57;45.78;101495.84;5030023;28;1609;-56
2021/05/10 12:25:10;;;;;;;;;;;;;;;19.62;46.37;101495.50;5040032;28;1710;-66
2021/05/10 12:27:38;;;;;;;;;;;;;;;19.65;46.02;101497.91;5021962;28;1739;-56
2021/05/10 12:30:05;;;;;;;;;;;;;;;19.67;46.17;101499.50;5043998;28;1160;-56
2021/05/10 12:32:31;;;;;;;;;;;;;;;19.67;46.31;101485.22;5044062;28;1296;-59
2021/05/10 12:34:57;;;;;;;;;;;;;;;19.66;46.50;101494.28;5050952;28;1161;-57
2021/05/10 12:37:23;;;;;;;;;;;;;;;19.65;46.30;101481.81;5039090;28;1973;-56
2021/05/10 12:40:03;;;;;;;;;;;;;;;19.66;46.38;101486.22;5049995;28;1176;-66
2021/05/10 12:42:29;;;;;;;;;;;;;;;19.69;46.44;101469.84;5031089;28;1689;-65
2021/05/10 12:44:57;;;;;;;;;;;;;;;19.71;46.62;101494.78;5046012;28;1137;-57
2021/05/10 12:47:39;;;;;;;;;;;;;;;19.64;46.62;101474.75;5038969;28;1168;-69
2021/05/10 12:50:05;;;;;;;;;;;;;;;19.63;46.74;101460.47;5047645;28;1227;-55
2021/05/10 12:52:44;;;;;;;;;;;;;;;19.65;47.29;101457.66;5034936;28;1685;-56
2021/05/10 12:55:20;;;;;;;;;;;;;;;19.65;47.41;101476.44;5051779;28;1180;-66
2021/05/10 12:57:46;;;;;;;;;;;;;;;19.58;47.71;101468.03;5026784;28;1980;-57
2021/05/10 13:00:36;;;;;;;;;;;;;;;19.59;47.91;101476.94;5046395;28;1200;-56
2021/05/10 13:03:03;;;;;;;;;;;;;;;19.64;46.91;101469.38;5020970;28;1545;-66